Check out our new PWSWeather beta!
PWSweather.com
Personal Weather Stations
Station Observations
KVAGLENALL
West Henrico, Glen Allen, VA 23060-6503

West HenricoGlen Allen, VA 23060-6503

Lat: 37.6554, Lon: -77.5693

Elevation: 273

Station Type: Davis Vantage Pro II

www.glenallenweather.com

High Low Average
Temperature 87.5°F30.8°C 65.8°F18.8°C 76.2°F24.6°C
Dew Point 66.1°F18.9°C 60.7°F15.9°C 63.3°F17.4°C
Winds 8.0 mph 12.9 kmh Calm Calm 3.0 mph SE4.8 kmh SE
Wind Gusts 8.1 mph13.0 kmh -- 4.0 mph6.4 kmh
Humidity 84% 43% 66%
Pressure 30.01 in1016.3 mb 29.91 in1012.9 mb -
Precipitation 0.00 in0.0 mm - -
Hour Temp Dew Point Humidity Winds Wind Gusts Pressure Precip Precip Rate Daily Precip Total
12:30 AM 72.5°F22.5°C 64.5°F18.1°C 76% 3.0 mph N4.8 kmh N 6.1 mph9.8 kmh 29.92 in1013.2 mb 0.00 in0.0 mm 0.00 in0.0 mm 0.00 in0.0 mm
01:30 AM 72.3°F22.4°C 61.9°F16.6°C 70% 5.0 mph NNE8.0 kmh NNE 8.1 mph13.0 kmh 29.91 in1012.9 mb 0.00 in0.0 mm 0.00 in0.0 mm 0.00 in0.0 mm
02:30 AM 72.4°F22.4°C 60.8°F16.0°C 67% 4.0 mph N6.4 kmh N 5.1 mph8.2 kmh 29.93 in1013.5 mb 0.00 in0.0 mm 0.00 in0.0 mm 0.00 in0.0 mm
03:30 AM 69.0°F20.6°C 60.8°F16.0°C 75% 1.0 mph NNW1.6 kmh NNW 1.0 mph1.6 kmh 29.94 in1013.9 mb 0.00 in0.0 mm 0.00 in0.0 mm 0.00 in0.0 mm
04:30 AM 66.3°F19.1°C 60.7°F15.9°C 82% Calm Calm -- 29.95 in1014.2 mb 0.00 in0.0 mm 0.00 in0.0 mm 0.00 in0.0 mm
05:30 AM 65.8°F18.8°C 60.9°F16.1°C 84% 3.0 mph N4.8 kmh N 4.0 mph6.4 kmh 29.96 in1014.6 mb 0.00 in0.0 mm 0.00 in0.0 mm 0.00 in0.0 mm
06:30 AM 68.2°F20.1°C 62.9°F17.2°C 83% 2.0 mph N3.2 kmh N 3.0 mph4.8 kmh 29.99 in1015.6 mb 0.00 in0.0 mm 0.00 in0.0 mm 0.00 in0.0 mm
07:30 AM 71.8°F22.1°C 64.5°F18.1°C 78% 3.0 mph NNE4.8 kmh NNE 4.0 mph6.4 kmh 30.00 in1015.9 mb 0.00 in0.0 mm 0.00 in0.0 mm 0.00 in0.0 mm
08:30 AM 77.0°F25.0°C 65.2°F18.4°C 67% 3.0 mph NE4.8 kmh NE 5.1 mph8.2 kmh 30.00 in1015.9 mb 0.00 in0.0 mm 0.00 in0.0 mm 0.00 in0.0 mm
09:30 AM 78.7°F25.9°C 64.6°F18.1°C 62% 6.0 mph NE9.7 kmh NE 6.1 mph9.8 kmh 30.00 in1015.9 mb 0.00 in0.0 mm 0.00 in0.0 mm 0.00 in0.0 mm
10:30 AM 80.7°F27.1°C 63.6°F17.6°C 56% 4.0 mph NNE6.4 kmh NNE 6.1 mph9.8 kmh 30.01 in1016.3 mb 0.00 in0.0 mm 0.00 in0.0 mm 0.00 in0.0 mm
11:30 AM 82.9°F28.3°C 65.1°F18.4°C 55% 3.0 mph NNW4.8 kmh NNW 4.0 mph6.4 kmh 29.99 in1015.6 mb 0.00 in0.0 mm 0.00 in0.0 mm 0.00 in0.0 mm
12:30 PM 83.8°F28.8°C 65.4°F18.6°C 54% 2.0 mph N3.2 kmh N 5.1 mph8.2 kmh 29.99 in1015.6 mb 0.00 in0.0 mm 0.00 in0.0 mm 0.00 in0.0 mm
01:30 PM 85.0°F29.4°C 63.7°F17.6°C 49% 3.0 mph NW4.8 kmh NW 6.1 mph9.8 kmh 29.99 in1015.6 mb 0.00 in0.0 mm 0.00 in0.0 mm 0.00 in0.0 mm
02:30 PM 86.3°F30.2°C 66.1°F18.9°C 51% 4.0 mph W6.4 kmh W 8.1 mph13.0 kmh 29.97 in1014.9 mb 0.00 in0.0 mm 0.00 in0.0 mm 0.00 in0.0 mm
03:30 PM 87.1°F30.6°C 61.9°F16.6°C 43% 8.0 mph NE12.9 kmh NE 8.1 mph13.0 kmh 29.96 in1014.6 mb 0.00 in0.0 mm 0.00 in0.0 mm 0.00 in0.0 mm
04:30 PM 87.5°F30.8°C 63.0°F17.2°C 44% 6.0 mph N9.7 kmh N 6.1 mph9.8 kmh 29.95 in1014.2 mb 0.00 in0.0 mm 0.00 in0.0 mm 0.00 in0.0 mm
05:30 PM 83.9°F28.8°C 62.1°F16.7°C 48% 5.0 mph NNW8.0 kmh NNW 6.1 mph9.8 kmh 29.94 in1013.9 mb 0.00 in0.0 mm 0.00 in0.0 mm 0.00 in0.0 mm
06:30 PM 79.4°F26.3°C 64.8°F18.2°C 61% 2.0 mph NE3.2 kmh NE 2.0 mph3.2 kmh 29.95 in1014.2 mb 0.00 in0.0 mm 0.00 in0.0 mm 0.00 in0.0 mm
07:30 PM 75.9°F24.4°C 64.6°F18.1°C 68% Calm Calm 1.0 mph1.6 kmh 29.95 in1014.2 mb 0.00 in0.0 mm 0.00 in0.0 mm 0.00 in0.0 mm
08:30 PM 72.4°F22.4°C 63.2°F17.3°C 73% Calm Calm -- 29.95 in1014.2 mb 0.00 in0.0 mm 0.00 in0.0 mm 0.00 in0.0 mm
09:30 PM 71.0°F21.7°C 63.4°F17.4°C 77% Calm Calm -- 29.96 in1014.6 mb 0.00 in0.0 mm 0.00 in0.0 mm 0.00 in0.0 mm
10:30 PM 69.1°F20.6°C 62.7°F17.1°C 80% Calm Calm -- 29.96 in1014.6 mb 0.00 in0.0 mm 0.00 in0.0 mm 0.00 in0.0 mm
11:30 PM 68.7°F20.4°C 63.0°F17.2°C 82% Calm Calm -- 29.97 in1014.9 mb 0.00 in0.0 mm 0.00 in0.0 mm 0.00 in0.0 mm